Página principal
METAR-TAF:

METAR-TAF

Aeroportos :

Majuro, Ilhas Marshall

latitude: 07-04N, longitude: 171-17E, altura: 2 m

Observação actual do tempo

O boletim foi feito há 5 horas e 18 minutos, às 06:51 UTC
Vento 18 kt de nordeste
Temperatura 28°C
Humidade 84%
Pressão 1011 hPa
Visibilidade: 24.1 km
Poucas nuvensa uma altura de 1500 ft
Nuvens dispersasa uma altura de 5000 ft
Nuvens fragmentadasa uma altura de 12000 ft
Encobertoa uma altura de 30000 ft

METAR: PKMJ 260651Z 04018KT 15SM FEW015 SCT050 BKN120 OVC300 28/25 A2986 RMK LAST

Hora: 00:09 (12:09 UTC)

Previsão

O boletim foi feito há 37 minutos, às 11:32 UTC
Previsão válida de 26 às 12 UTC a 27 às 12 UTC
Vento 18 kt de nordeste
Visibilidade: 10 km
Poucas nuvensa uma altura de 1500 ft
Nuvens dispersasa uma altura de 5000 ft
Nuvens fragmentadasa uma altura de 12000 ft
aguaceiros nas vizinhanças

TAF: PKMJ 261132Z 2612/2712 05018KT P6SM VCSH FEW015 SCT050 BKN120

Observações e previsões do tempo de mais de 4000 aeroportos (mensagens METAR e TAF).

As estações disponíveis são os pontos amarelos e vermelhos sobre o mapa.

Mova o rato sobre o mapa para ver o nome da estação.

Depois clique no ponto para visualizar as observações e previsões meteorológicas.

Para alterar o mapa : clique nos botões verdes com uma cruz preta para aumentar o zoom; no botão verde com uma pitada de zoom; ou nas setas verdes para mapas adjacentes.


METAR-TAF: